CYBN

CFB Borden Heliport

Borden, Ontario, Canada
METAR CYBN 240457Z AUTO 31008G19KT 280V350 2SM -SN OVC018 M07/M09 A2984
Observed Flight Rules
Jan-24 @ 04:57 UTC (23 minutes ago) Instrument Flight Rules
Wind Visibility Clouds Conditions
310° at 8 knots
 Gusting to 19 knots
2 miles
  • Overcast at 1,800' AGL
  • Light Snow
Temperatures Readings
Current -7°C / 19°F
Dewpoint -9°C / 16°F
Humidity 86%
Altimeter 29.84" Hg
Pressure 1010 hPa
Elevation 223
METAR CYBN 240457Z AUTO 31008G19KT 280V350 2SM -SN OVC018 M07/M09 A2984
Observed Flight Rules
Jan-24 @ 04:57 UTC
(23 minutes ago)
IFR
Wind Visibility
310° at 8 knots
 Gusting to 19 knots
2 miles
Clouds
  • Overcast at 1,800' AGL
Conditions
  • Light Snow
Temperature Dewpoint
-7°C / 19°F -9°C / 16°F
Humidity Altimeter Pressure
86% 29.84" Hg 1010 hPa